Aigle Des Mers — FO4883 — position and weather

sailwx.info

Track history (hours):
 
Tides and Currents Weather Stations Pressure Air Temp Water Temp Dewpoint Dewpoint Depression Visibility Wind Speed Wind Dir Waves Ship Positions

Aigle Des Mers

Last reported at 2015-Apr-28 01:11 UTC. Time now 2015-Apr-28 03:52 UTC.
Position N 48°06' W 004°20'.

Type: Fishing. MMSI: 227318010.

Date/timePositionNaut miles runAvg speedWind from/ knotsBaromVisibWave heightAir tempDewpointWater temp
2015-Apr-28 01:11N 48°06' W 004°20'0 0.1
2015-Apr-28 00:33N 48°06' W 004°20'6 5.7
2015-Apr-27 23:34N 48°11' W 004°20'5 5.2
2015-Apr-27 22:34N 48°12' W 004°28'4 3.5
2015-Apr-27 21:33N 48°09' W 004°25'8 8.1
2015-Apr-27 20:34N 48°08' W 004°37'2 1.7
2015-Apr-27 19:34N 48°09' W 004°40'14 0.7
2015-Apr-26 23:33N 48°06' W 004°20'1 1.5
2015-Apr-26 22:34N 48°07' W 004°20'8 7.6
2015-Apr-26 21:34N 48°09' W 004°31'8 8.2
2015-Apr-26 20:34N 48°10' W 004°43'0 0.5
2015-Apr-26 19:33N 48°10' W 004°44'2 2.5
2015-Apr-26 18:33N 48°12' W 004°43'9 8.7
2015-Apr-26 17:33N 48°09' W 004°30'8 6.5
2015-Apr-26 16:19N 48°06' W 004°19'  
2015-Apr-23 20:33N 48°06' W 004°19'3 2.9
2015-Apr-23 19:33N 48°07' W 004°23'3 2.9
2015-Apr-23 18:33N 48°07' W 004°28'3 3.5
2015-Apr-23 17:33N 48°07' W 004°23'  
2015-Apr-19 19:06N 48°06' W 004°19'3 5.4
2015-Apr-19 18:33N 48°07' W 004°23'3 2.6
2015-Apr-19 17:33N 48°08' W 004°27'6 5.7
2015-Apr-19 16:33N 48°06' W 004°19'  
Track history (hours):
 
Tides and Currents Weather Stations Pressure Air Temp Water Temp Dewpoint Dewpoint Depression Visibility Wind Speed Wind Dir Waves Ship Positions

Aigle Des Mers

Last reported at 2015-Apr-28 01:11 UTC. Time now 2015-Apr-28 03:52 UTC.
Position N 48°06' W 004°20'.

Type: Fishing. MMSI: 227318010.

Date/timePositionNaut miles runAvg speedWind from/ knotsBaromVisibWave heightAir tempDewpointWater temp
2015-Apr-28 01:11N 48°06' W 004°20'0 0.1
2015-Apr-28 00:33N 48°06' W 004°20'6 5.7
2015-Apr-27 23:34N 48°11' W 004°20'5 5.2
2015-Apr-27 22:34N 48°12' W 004°28'4 3.5
2015-Apr-27 21:33N 48°09' W 004°25'8 8.1
2015-Apr-27 20:34N 48°08' W 004°37'2 1.7
2015-Apr-27 19:34N 48°09' W 004°40'14 0.7
2015-Apr-26 23:33N 48°06' W 004°20'1 1.5
2015-Apr-26 22:34N 48°07' W 004°20'8 7.6
2015-Apr-26 21:34N 48°09' W 004°31'8 8.2
2015-Apr-26 20:34N 48°10' W 004°43'0 0.5
2015-Apr-26 19:33N 48°10' W 004°44'2 2.5
2015-Apr-26 18:33N 48°12' W 004°43'9 8.7
2015-Apr-26 17:33N 48°09' W 004°30'8 6.5
2015-Apr-26 16:19N 48°06' W 004°19'  
2015-Apr-23 20:33N 48°06' W 004°19'3 2.9
2015-Apr-23 19:33N 48°07' W 004°23'3 2.9
2015-Apr-23 18:33N 48°07' W 004°28'3 3.5
2015-Apr-23 17:33N 48°07' W 004°23'  
2015-Apr-19 19:06N 48°06' W 004°19'3 5.4
2015-Apr-19 18:33N 48°07' W 004°23'3 2.6
2015-Apr-19 17:33N 48°08' W 004°27'6 5.7
2015-Apr-19 16:33N 48°06' W 004°19'  

Dump ship's entire track history